sensor_id;sensor_type;location;lat;lon;timestamp;P1;durP1;ratioP1;P2;durP2;ratioP2
37657;SDS011;23500;53.268;8.308;2022-07-09T00:00:38;1.90;;;1.35;;
37657;SDS011;23500;53.268;8.308;2022-07-09T00:03:03;2.10;;;1.60;;
37657;SDS011;23500;53.268;8.308;2022-07-09T00:05:29;1.48;;;1.38;;
37657;SDS011;23500;53.268;8.308;2022-07-09T00:07:55;1.40;;;1.30;;
37657;SDS011;23500;53.268;8.308;2022-07-09T00:10:21;1.40;;;1.30;;
37657;SDS011;23500;53.268;8.308;2022-07-09T00:12:46;1.40;;;1.30;;
37657;SDS011;23500;53.268;8.308;2022-07-09T00:15:12;1.73;;;1.63;;
37657;SDS011;23500;53.268;8.308;2022-07-09T00:17:38;1.50;;;1.40;;
37657;SDS011;23500;53.268;8.308;2022-07-09T00:20:04;2.05;;;1.52;;
37657;SDS011;23500;53.268;8.308;2022-07-09T00:22:33;1.60;;;1.50;;
37657;SDS011;23500;53.268;8.308;2022-07-09T00:24:59;1.42;;;1.33;;
37657;SDS011;23500;53.268;8.308;2022-07-09T00:27:25;1.98;;;1.70;;
37657;SDS011;23500;53.268;8.308;2022-07-09T00:29:51;1.45;;;1.30;;
37657;SDS011;23500;53.268;8.308;2022-07-09T00:32:17;1.50;;;1.40;;
37657;SDS011;23500;53.268;8.308;2022-07-09T00:34:43;1.50;;;1.40;;
37657;SDS011;23500;53.268;8.308;2022-07-09T00:37:09;1.50;;;1.40;;
37657;SDS011;23500;53.268;8.308;2022-07-09T00:39:34;1.58;;;1.48;;
37657;SDS011;23500;53.268;8.308;2022-07-09T00:42:04;1.60;;;1.50;;
37657;SDS011;23500;53.268;8.308;2022-07-09T00:44:30;1.40;;;1.30;;
37657;SDS011;23500;53.268;8.308;2022-07-09T00:46:56;1.73;;;1.45;;
37657;SDS011;23500;53.268;8.308;2022-07-09T00:49:23;1.45;;;1.35;;
37657;SDS011;23500;53.268;8.308;2022-07-09T00:51:50;2.28;;;1.50;;
37657;SDS011;23500;53.268;8.308;2022-07-09T00:54:17;1.60;;;1.50;;
37657;SDS011;23500;53.268;8.308;2022-07-09T00:56:42;1.55;;;1.42;;
37657;SDS011;23500;53.268;8.308;2022-07-09T00:59:08;1.40;;;1.30;;
37657;SDS011;23500;53.268;8.308;2022-07-09T01:01:37;1.70;;;1.60;;
37657;SDS011;23500;53.268;8.308;2022-07-09T01:04:05;1.60;;;1.50;;
37657;SDS011;23500;53.268;8.308;2022-07-09T01:06:31;1.65;;;1.48;;
37657;SDS011;23500;53.268;8.308;2022-07-09T01:08:56;1.50;;;1.40;;
37657;SDS011;23500;53.268;8.308;2022-07-09T01:11:22;2.00;;;1.75;;
37657;SDS011;23500;53.268;8.308;2022-07-09T01:13:49;1.45;;;1.35;;
37657;SDS011;23500;53.268;8.308;2022-07-09T01:16:16;1.42;;;1.33;;
37657;SDS011;23500;53.268;8.308;2022-07-09T01:18:45;1.60;;;1.50;;
37657;SDS011;23500;53.268;8.308;2022-07-09T01:21:12;1.15;;;1.15;;
37657;SDS011;23500;53.268;8.308;2022-07-09T01:23:38;1.25;;;1.23;;
37657;SDS011;23500;53.268;8.308;2022-07-09T01:26:04;1.52;;;1.42;;
37657;SDS011;23500;53.268;8.308;2022-07-09T01:28:30;1.50;;;1.40;;
37657;SDS011;23500;53.268;8.308;2022-07-09T01:30:55;1.50;;;1.38;;
37657;SDS011;23500;53.268;8.308;2022-07-09T01:33:21;1.42;;;1.30;;
37657;SDS011;23500;53.268;8.308;2022-07-09T01:35:46;1.55;;;1.45;;
37657;SDS011;23500;53.268;8.308;2022-07-09T01:38:12;1.40;;;1.30;;
37657;SDS011;23500;53.268;8.308;2022-07-09T01:40:38;1.45;;;1.30;;
37657;SDS011;23500;53.268;8.308;2022-07-09T01:43:04;1.20;;;1.10;;
37657;SDS011;23500;53.268;8.308;2022-07-09T01:45:29;1.55;;;1.45;;
37657;SDS011;23500;53.268;8.308;2022-07-09T01:47:55;1.33;;;1.23;;
37657;SDS011;23500;53.268;8.308;2022-07-09T01:50:21;1.25;;;1.15;;
37657;SDS011;23500;53.268;8.308;2022-07-09T01:52:47;1.30;;;1.20;;
37657;SDS011;23500;53.268;8.308;2022-07-09T01:55:12;1.58;;;1.48;;
37657;SDS011;23500;53.268;8.308;2022-07-09T01:57:38;2.03;;;1.50;;
37657;SDS011;23500;53.268;8.308;2022-07-09T02:00:04;1.45;;;1.35;;
37657;SDS011;23500;53.268;8.308;2022-07-09T02:02:30;1.98;;;1.48;;
37657;SDS011;23500;53.268;8.308;2022-07-09T02:04:56;1.45;;;1.35;;
37657;SDS011;23500;53.268;8.308;2022-07-09T02:07:22;1.30;;;1.20;;
37657;SDS011;23500;53.268;8.308;2022-07-09T02:09:47;1.40;;;1.30;;
37657;SDS011;23500;53.268;8.308;2022-07-09T02:12:14;1.60;;;1.50;;
37657;SDS011;23500;53.268;8.308;2022-07-09T02:14:41;1.83;;;1.55;;
37657;SDS011;23500;53.268;8.308;2022-07-09T02:17:06;1.50;;;1.40;;
37657;SDS011;23500;53.268;8.308;2022-07-09T02:19:32;1.80;;;1.60;;
37657;SDS011;23500;53.268;8.308;2022-07-09T02:21:58;1.52;;;1.40;;
37657;SDS011;23500;53.268;8.308;2022-07-09T02:24:24;2.20;;;1.30;;
37657;SDS011;23500;53.268;8.308;2022-07-09T02:26:49;1.60;;;1.50;;
37657;SDS011;23500;53.268;8.308;2022-07-09T02:29:15;1.98;;;1.40;;
37657;SDS011;23500;53.268;8.308;2022-07-09T02:31:41;1.42;;;1.33;;
37657;SDS011;23500;53.268;8.308;2022-07-09T02:34:06;1.35;;;1.25;;
37657;SDS011;23500;53.268;8.308;2022-07-09T02:36:32;1.30;;;1.20;;
37657;SDS011;23500;53.268;8.308;2022-07-09T02:38:57;1.42;;;1.33;;
37657;SDS011;23500;53.268;8.308;2022-07-09T02:41:23;1.48;;;1.38;;
37657;SDS011;23500;53.268;8.308;2022-07-09T02:43:49;1.63;;;1.52;;
37657;SDS011;23500;53.268;8.308;2022-07-09T02:46:14;1.40;;;1.30;;
37657;SDS011;23500;53.268;8.308;2022-07-09T02:48:40;1.58;;;1.48;;
37657;SDS011;23500;53.268;8.308;2022-07-09T02:51:06;1.45;;;1.35;;
37657;SDS011;23500;53.268;8.308;2022-07-09T02:53:31;1.98;;;1.23;;
37657;SDS011;23500;53.268;8.308;2022-07-09T02:55:57;1.30;;;1.27;;
37657;SDS011;23500;53.268;8.308;2022-07-09T02:58:23;1.58;;;1.48;;
37657;SDS011;23500;53.268;8.308;2022-07-09T03:00:48;1.40;;;1.30;;
37657;SDS011;23500;53.268;8.308;2022-07-09T03:03:14;1.40;;;1.30;;
37657;SDS011;23500;53.268;8.308;2022-07-09T03:05:40;1.52;;;1.42;;
37657;SDS011;23500;53.268;8.308;2022-07-09T03:08:06;1.42;;;1.33;;
37657;SDS011;23500;53.268;8.308;2022-07-09T03:10:33;1.30;;;1.20;;
37657;SDS011;23500;53.268;8.308;2022-07-09T03:12:59;1.60;;;1.45;;
37657;SDS011;23500;53.268;8.308;2022-07-09T03:15:25;1.50;;;1.40;;
37657;SDS011;23500;53.268;8.308;2022-07-09T03:17:51;1.58;;;1.48;;
37657;SDS011;23500;53.268;8.308;2022-07-09T03:20:16;1.75;;;1.35;;
37657;SDS011;23500;53.268;8.308;2022-07-09T03:22:42;1.35;;;1.25;;
37657;SDS011;23500;53.268;8.308;2022-07-09T03:25:08;1.67;;;1.30;;
37657;SDS011;23500;53.268;8.308;2022-07-09T03:27:34;1.30;;;1.20;;
37657;SDS011;23500;53.268;8.308;2022-07-09T03:30:00;1.20;;;1.10;;
37657;SDS011;23500;53.268;8.308;2022-07-09T03:32:26;1.30;;;1.20;;
37657;SDS011;23500;53.268;8.308;2022-07-09T03:34:52;1.83;;;1.20;;
37657;SDS011;23500;53.268;8.308;2022-07-09T03:37:18;1.48;;;1.38;;
37657;SDS011;23500;53.268;8.308;2022-07-09T03:39:45;1.30;;;1.20;;
37657;SDS011;23500;53.268;8.308;2022-07-09T03:42:11;1.60;;;1.50;;
37657;SDS011;23500;53.268;8.308;2022-07-09T03:44:37;1.42;;;1.33;;
37657;SDS011;23500;53.268;8.308;2022-07-09T03:47:03;1.40;;;1.30;;
37657;SDS011;23500;53.268;8.308;2022-07-09T03:49:29;1.40;;;1.30;;
37657;SDS011;23500;53.268;8.308;2022-07-09T03:51:55;1.40;;;1.30;;
37657;SDS011;23500;53.268;8.308;2022-07-09T03:54:21;1.20;;;1.20;;
37657;SDS011;23500;53.268;8.308;2022-07-09T03:56:46;2.03;;;1.50;;
37657;SDS011;23500;53.268;8.308;2022-07-09T03:59:12;1.50;;;1.40;;
37657;SDS011;23500;53.268;8.308;2022-07-09T04:01:37;1.35;;;1.25;;
37657;SDS011;23500;53.268;8.308;2022-07-09T04:04:04;1.50;;;1.40;;
37657;SDS011;23500;53.268;8.308;2022-07-09T04:06:29;1.67;;;1.40;;
37657;SDS011;23500;53.268;8.308;2022-07-09T04:08:56;1.33;;;1.23;;
37657;SDS011;23500;53.268;8.308;2022-07-09T04:11:21;1.60;;;1.50;;
37657;SDS011;23500;53.268;8.308;2022-07-09T04:13:47;1.45;;;1.30;;
37657;SDS011;23500;53.268;8.308;2022-07-09T04:16:14;1.52;;;1.42;;
37657;SDS011;23500;53.268;8.308;2022-07-09T04:18:39;1.40;;;1.30;;
37657;SDS011;23500;53.268;8.308;2022-07-09T04:21:08;1.50;;;1.40;;
37657;SDS011;23500;53.268;8.308;2022-07-09T04:23:34;1.33;;;1.23;;
37657;SDS011;23500;53.268;8.308;2022-07-09T04:26:00;1.95;;;1.35;;
37657;SDS011;23500;53.268;8.308;2022-07-09T04:28:26;1.42;;;1.33;;
37657;SDS011;23500;53.268;8.308;2022-07-09T04:30:52;1.88;;;1.40;;
37657;SDS011;23500;53.268;8.308;2022-07-09T04:33:17;1.50;;;1.23;;
37657;SDS011;23500;53.268;8.308;2022-07-09T04:35:43;1.63;;;1.27;;
37657;SDS011;23500;53.268;8.308;2022-07-09T04:38:10;1.15;;;1.08;;
37657;SDS011;23500;53.268;8.308;2022-07-09T04:40:37;1.30;;;1.20;;
37657;SDS011;23500;53.268;8.308;2022-07-09T04:43:04;1.35;;;1.25;;
37657;SDS011;23500;53.268;8.308;2022-07-09T04:45:30;1.35;;;1.20;;
37657;SDS011;23500;53.268;8.308;2022-07-09T04:47:57;1.50;;;1.40;;
37657;SDS011;23500;53.268;8.308;2022-07-09T04:50:24;1.30;;;1.20;;
37657;SDS011;23500;53.268;8.308;2022-07-09T04:52:50;1.40;;;1.30;;
37657;SDS011;23500;53.268;8.308;2022-07-09T04:55:16;1.40;;;1.30;;
37657;SDS011;23500;53.268;8.308;2022-07-09T04:57:42;1.10;;;1.10;;
37657;SDS011;23500;53.268;8.308;2022-07-09T05:00:09;1.58;;;1.48;;
37657;SDS011;23500;53.268;8.308;2022-07-09T05:02:36;1.33;;;1.23;;
37657;SDS011;23500;53.268;8.308;2022-07-09T05:05:02;1.40;;;1.30;;
37657;SDS011;23500;53.268;8.308;2022-07-09T05:07:29;1.40;;;1.30;;
37657;SDS011;23500;53.268;8.308;2022-07-09T05:09:55;1.50;;;1.40;;
37657;SDS011;23500;53.268;8.308;2022-07-09T05:12:21;1.60;;;1.50;;
37657;SDS011;23500;53.268;8.308;2022-07-09T05:14:47;2.03;;;1.50;;
37657;SDS011;23500;53.268;8.308;2022-07-09T05:17:13;1.60;;;1.50;;
37657;SDS011;23500;53.268;8.308;2022-07-09T05:19:39;1.60;;;1.50;;
37657;SDS011;23500;53.268;8.308;2022-07-09T05:22:04;1.40;;;1.30;;
37657;SDS011;23500;53.268;8.308;2022-07-09T05:24:30;1.65;;;1.48;;
37657;SDS011;23500;53.268;8.308;2022-07-09T05:26:56;1.70;;;1.60;;
37657;SDS011;23500;53.268;8.308;2022-07-09T05:29:21;1.40;;;1.30;;
37657;SDS011;23500;53.268;8.308;2022-07-09T05:31:48;1.58;;;1.48;;
37657;SDS011;23500;53.268;8.308;2022-07-09T05:34:15;1.60;;;1.50;;
37657;SDS011;23500;53.268;8.308;2022-07-09T05:36:40;1.60;;;1.50;;
37657;SDS011;23500;53.268;8.308;2022-07-09T05:39:06;1.95;;;1.65;;
37657;SDS011;23500;53.268;8.308;2022-07-09T05:41:32;1.63;;;1.50;;
37657;SDS011;23500;53.268;8.308;2022-07-09T05:43:58;1.70;;;1.60;;
37657;SDS011;23500;53.268;8.308;2022-07-09T05:46:24;1.50;;;1.40;;
37657;SDS011;23500;53.268;8.308;2022-07-09T05:48:50;1.80;;;1.70;;
37657;SDS011;23500;53.268;8.308;2022-07-09T05:51:16;1.60;;;1.50;;
37657;SDS011;23500;53.268;8.308;2022-07-09T05:53:41;2.25;;;1.70;;
37657;SDS011;23500;53.268;8.308;2022-07-09T05:56:07;1.60;;;1.50;;
37657;SDS011;23500;53.268;8.308;2022-07-09T05:58:33;1.98;;;1.77;;
37657;SDS011;23500;53.268;8.308;2022-07-09T06:00:59;1.65;;;1.55;;
37657;SDS011;23500;53.268;8.308;2022-07-09T06:03:24;1.67;;;1.58;;
37657;SDS011;23500;53.268;8.308;2022-07-09T06:05:50;1.65;;;1.50;;
37657;SDS011;23500;53.268;8.308;2022-07-09T06:08:15;1.70;;;1.60;;
37657;SDS011;23500;53.268;8.308;2022-07-09T06:10:41;1.70;;;1.60;;
37657;SDS011;23500;53.268;8.308;2022-07-09T06:13:07;2.22;;;1.70;;
37657;SDS011;23500;53.268;8.308;2022-07-09T06:15:33;1.63;;;1.52;;
37657;SDS011;23500;53.268;8.308;2022-07-09T06:17:58;1.70;;;1.60;;
37657;SDS011;23500;53.268;8.308;2022-07-09T06:20:24;2.08;;;1.98;;
37657;SDS011;23500;53.268;8.308;2022-07-09T06:22:50;1.63;;;1.52;;
37657;SDS011;23500;53.268;8.308;2022-07-09T06:25:15;1.70;;;1.60;;
37657;SDS011;23500;53.268;8.308;2022-07-09T06:27:41;1.73;;;1.60;;
37657;SDS011;23500;53.268;8.308;2022-07-09T06:30:07;1.98;;;1.80;;
37657;SDS011;23500;53.268;8.308;2022-07-09T06:32:34;1.95;;;1.70;;
37657;SDS011;23500;53.268;8.308;2022-07-09T06:34:59;1.70;;;1.60;;
37657;SDS011;23500;53.268;8.308;2022-07-09T06:37:25;2.63;;;1.83;;
37657;SDS011;23500;53.268;8.308;2022-07-09T06:39:51;2.10;;;1.90;;
37657;SDS011;23500;53.268;8.308;2022-07-09T06:42:20;1.75;;;1.60;;
37657;SDS011;23500;53.268;8.308;2022-07-09T06:44:46;2.50;;;1.98;;
37657;SDS011;23500;53.268;8.308;2022-07-09T06:47:12;2.40;;;1.83;;
37657;SDS011;23500;53.268;8.308;2022-07-09T06:49:38;1.90;;;1.77;;
37657;SDS011;23500;53.268;8.308;2022-07-09T06:52:04;2.45;;;1.90;;
37657;SDS011;23500;53.268;8.308;2022-07-09T06:54:30;2.38;;;1.70;;
37657;SDS011;23500;53.268;8.308;2022-07-09T06:56:56;2.05;;;1.85;;
37657;SDS011;23500;53.268;8.308;2022-07-09T06:59:22;2.03;;;1.80;;
37657;SDS011;23500;53.268;8.308;2022-07-09T07:01:48;1.77;;;1.67;;
37657;SDS011;23500;53.268;8.308;2022-07-09T07:04:14;2.03;;;1.83;;
37657;SDS011;23500;53.268;8.308;2022-07-09T07:06:43;2.65;;;1.90;;
37657;SDS011;23500;53.268;8.308;2022-07-09T07:09:11;1.77;;;1.67;;
37657;SDS011;23500;53.268;8.308;2022-07-09T07:11:37;1.70;;;1.60;;
37657;SDS011;23500;53.268;8.308;2022-07-09T07:14:03;2.20;;;1.80;;
37657;SDS011;23500;53.268;8.308;2022-07-09T07:16:29;1.80;;;1.70;;
37657;SDS011;23500;53.268;8.308;2022-07-09T07:18:54;1.95;;;1.85;;
37657;SDS011;23500;53.268;8.308;2022-07-09T07:21:20;1.90;;;1.70;;
37657;SDS011;23500;53.268;8.308;2022-07-09T07:23:46;1.98;;;1.77;;
37657;SDS011;23500;53.268;8.308;2022-07-09T07:26:11;1.70;;;1.60;;
37657;SDS011;23500;53.268;8.308;2022-07-09T07:28:37;1.70;;;1.60;;
37657;SDS011;23500;53.268;8.308;2022-07-09T07:31:03;4.38;;;1.90;;
37657;SDS011;23500;53.268;8.308;2022-07-09T07:33:28;2.00;;;1.80;;
37657;SDS011;23500;53.268;8.308;2022-07-09T07:35:54;2.13;;;1.90;;
37657;SDS011;23500;53.268;8.308;2022-07-09T07:38:20;2.03;;;1.83;;
37657;SDS011;23500;53.268;8.308;2022-07-09T07:40:45;1.77;;;1.67;;
37657;SDS011;23500;53.268;8.308;2022-07-09T07:43:11;2.05;;;1.90;;
37657;SDS011;23500;53.268;8.308;2022-07-09T07:45:37;1.70;;;1.60;;
37657;SDS011;23500;53.268;8.308;2022-07-09T07:48:03;1.98;;;1.77;;
37657;SDS011;23500;53.268;8.308;2022-07-09T07:50:29;1.80;;;1.70;;
37657;SDS011;23500;53.268;8.308;2022-07-09T07:52:56;1.90;;;1.80;;
37657;SDS011;23500;53.268;8.308;2022-07-09T07:55:22;1.85;;;1.70;;
37657;SDS011;23500;53.268;8.308;2022-07-09T07:57:48;1.80;;;1.70;;
37657;SDS011;23500;53.268;8.308;2022-07-09T08:00:13;2.50;;;1.80;;
37657;SDS011;23500;53.268;8.308;2022-07-09T08:02:39;1.90;;;1.80;;
37657;SDS011;23500;53.268;8.308;2022-07-09T08:05:05;1.83;;;1.73;;
37657;SDS011;23500;53.268;8.308;2022-07-09T08:07:31;1.67;;;1.58;;
37657;SDS011;23500;53.268;8.308;2022-07-09T08:09:57;2.13;;;1.92;;
37657;SDS011;23500;53.268;8.308;2022-07-09T08:12:23;1.80;;;1.70;;
37657;SDS011;23500;53.268;8.308;2022-07-09T08:14:49;1.98;;;1.70;;
37657;SDS011;23500;53.268;8.308;2022-07-09T08:17:15;2.42;;;1.58;;
37657;SDS011;23500;53.268;8.308;2022-07-09T08:19:40;1.90;;;1.80;;
37657;SDS011;23500;53.268;8.308;2022-07-09T08:22:06;2.03;;;1.83;;
37657;SDS011;23500;53.268;8.308;2022-07-09T08:24:32;1.55;;;1.45;;
37657;SDS011;23500;53.268;8.308;2022-07-09T08:26:58;1.80;;;1.70;;
37657;SDS011;23500;53.268;8.308;2022-07-09T08:29:24;2.17;;;1.70;;
37657;SDS011;23500;53.268;8.308;2022-07-09T08:31:50;1.80;;;1.70;;
37657;SDS011;23500;53.268;8.308;2022-07-09T08:34:16;1.75;;;1.65;;
37657;SDS011;23500;53.268;8.308;2022-07-09T08:36:42;1.70;;;1.60;;
37657;SDS011;23500;53.268;8.308;2022-07-09T08:39:09;1.90;;;1.80;;
37657;SDS011;23500;53.268;8.308;2022-07-09T08:41:35;2.08;;;1.70;;
37657;SDS011;23500;53.268;8.308;2022-07-09T08:44:02;1.85;;;1.75;;
37657;SDS011;23500;53.268;8.308;2022-07-09T08:46:29;1.95;;;1.80;;
37657;SDS011;23500;53.268;8.308;2022-07-09T08:48:58;1.73;;;1.60;;
37657;SDS011;23500;53.268;8.308;2022-07-09T08:51:24;1.98;;;1.83;;
37657;SDS011;23500;53.268;8.308;2022-07-09T08:53:52;3.13;;;2.05;;
37657;SDS011;23500;53.268;8.308;2022-07-09T08:56:22;1.98;;;1.77;;
37657;SDS011;23500;53.268;8.308;2022-07-09T08:58:48;2.95;;;1.95;;
37657;SDS011;23500;53.268;8.308;2022-07-09T09:01:14;1.80;;;1.70;;
37657;SDS011;23500;53.268;8.308;2022-07-09T09:03:44;1.92;;;1.83;;
37657;SDS011;23500;53.268;8.308;2022-07-09T09:06:10;1.75;;;1.65;;
37657;SDS011;23500;53.268;8.308;2022-07-09T09:08:39;2.67;;;1.58;;
37657;SDS011;23500;53.268;8.308;2022-07-09T09:11:06;1.75;;;1.65;;
37657;SDS011;23500;53.268;8.308;2022-07-09T09:13:42;2.53;;;1.88;;
37657;SDS011;23500;53.268;8.308;2022-07-09T09:16:09;1.60;;;1.50;;
37657;SDS011;23500;53.268;8.308;2022-07-09T09:18:36;2.00;;;1.80;;
37657;SDS011;23500;53.268;8.308;2022-07-09T09:21:05;1.92;;;1.73;;
37657;SDS011;23500;53.268;8.308;2022-07-09T09:24:05;2.30;;;1.77;;
37657;SDS011;23500;53.268;8.308;2022-07-09T09:26:27;1.85;;;1.73;;
37657;SDS011;23500;53.268;8.308;2022-07-09T09:28:59;1.95;;;1.65;;
37657;SDS011;23500;53.268;8.308;2022-07-09T09:31:27;1.58;;;1.48;;
37657;SDS011;23500;53.268;8.308;2022-07-09T09:34:09;2.35;;;1.95;;
37657;SDS011;23500;53.268;8.308;2022-07-09T09:36:39;1.98;;;1.88;;
37657;SDS011;23500;53.268;8.308;2022-07-09T09:39:12;2.00;;;1.80;;
37657;SDS011;23500;53.268;8.308;2022-07-09T09:41:43;2.80;;;1.90;;
37657;SDS011;23500;53.268;8.308;2022-07-09T09:44:13;1.90;;;1.80;;
37657;SDS011;23500;53.268;8.308;2022-07-09T09:46:42;3.05;;;2.08;;
37657;SDS011;23500;53.268;8.308;2022-07-09T09:49:09;1.85;;;1.70;;
37657;SDS011;23500;53.268;8.308;2022-07-09T09:51:38;2.35;;;1.58;;
37657;SDS011;23500;53.268;8.308;2022-07-09T09:54:17;1.77;;;1.67;;
37657;SDS011;23500;53.268;8.308;2022-07-09T09:56:43;2.08;;;1.88;;
37657;SDS011;23500;53.268;8.308;2022-07-09T09:59:10;2.17;;;1.73;;
37657;SDS011;23500;53.268;8.308;2022-07-09T10:01:37;1.70;;;1.60;;
37657;SDS011;23500;53.268;8.308;2022-07-09T10:04:04;2.05;;;1.80;;
37657;SDS011;23500;53.268;8.308;2022-07-09T10:06:30;1.80;;;1.70;;
37657;SDS011;23500;53.268;8.308;2022-07-09T10:08:58;2.00;;;1.85;;
37657;SDS011;23500;53.268;8.308;2022-07-09T10:11:25;1.92;;;1.70;;
37657;SDS011;23500;53.268;8.308;2022-07-09T10:16:16;2.17;;;1.70;;
37657;SDS011;23500;53.268;8.308;2022-07-09T10:18:52;2.00;;;1.85;;
37657;SDS011;23500;53.268;8.308;2022-07-09T10:21:18;2.22;;;1.90;;
37657;SDS011;23500;53.268;8.308;2022-07-09T10:23:55;1.95;;;1.70;;
37657;SDS011;23500;53.268;8.308;2022-07-09T10:26:20;1.52;;;1.42;;
37657;SDS011;23500;53.268;8.308;2022-07-09T10:28:46;1.83;;;1.63;;
37657;SDS011;23500;53.268;8.308;2022-07-09T10:31:11;1.98;;;1.77;;
37657;SDS011;23500;53.268;8.308;2022-07-09T10:33:48;1.83;;;1.73;;
37657;SDS011;23500;53.268;8.308;2022-07-09T10:36:18;2.00;;;1.63;;
37657;SDS011;23500;53.268;8.308;2022-07-09T10:38:51;1.55;;;1.33;;
37657;SDS011;23500;53.268;8.308;2022-07-09T10:41:20;1.70;;;1.60;;
37657;SDS011;23500;53.268;8.308;2022-07-09T10:43:51;1.73;;;1.60;;
37657;SDS011;23500;53.268;8.308;2022-07-09T10:46:17;1.80;;;1.60;;
37657;SDS011;23500;53.268;8.308;2022-07-09T10:48:46;2.38;;;1.70;;
37657;SDS011;23500;53.268;8.308;2022-07-09T10:51:19;1.80;;;1.70;;
37657;SDS011;23500;53.268;8.308;2022-07-09T10:53:48;1.77;;;1.67;;
37657;SDS011;23500;53.268;8.308;2022-07-09T10:56:20;2.00;;;1.80;;
37657;SDS011;23500;53.268;8.308;2022-07-09T10:58:47;2.13;;;1.88;;
37657;SDS011;23500;53.268;8.308;2022-07-09T11:01:21;1.98;;;1.80;;
37657;SDS011;23500;53.268;8.308;2022-07-09T11:03:50;1.70;;;1.60;;
37657;SDS011;23500;53.268;8.308;2022-07-09T11:06:16;1.70;;;1.60;;
37657;SDS011;23500;53.268;8.308;2022-07-09T11:08:42;1.90;;;1.80;;
37657;SDS011;23500;53.268;8.308;2022-07-09T11:11:08;1.60;;;1.50;;
37657;SDS011;23500;53.268;8.308;2022-07-09T11:13:33;1.70;;;1.60;;
37657;SDS011;23500;53.268;8.308;2022-07-09T11:15:59;1.80;;;1.67;;
37657;SDS011;23500;53.268;8.308;2022-07-09T11:18:26;2.47;;;1.77;;
37657;SDS011;23500;53.268;8.308;2022-07-09T11:20:53;1.80;;;1.67;;
37657;SDS011;23500;53.268;8.308;2022-07-09T11:23:19;1.88;;;1.77;;
37657;SDS011;23500;53.268;8.308;2022-07-09T11:25:44;2.08;;;1.73;;
37657;SDS011;23500;53.268;8.308;2022-07-09T11:28:23;1.73;;;1.63;;
37657;SDS011;23500;53.268;8.308;2022-07-09T11:31:01;2.65;;;1.60;;
37657;SDS011;23500;53.268;8.308;2022-07-09T11:33:29;1.60;;;1.50;;
37657;SDS011;23500;53.268;8.308;2022-07-09T11:36:15;1.65;;;1.52;;
37657;SDS011;23500;53.268;8.308;2022-07-09T11:38:50;2.20;;;1.40;;
37657;SDS011;23500;53.268;8.308;2022-07-09T11:41:17;2.10;;;1.70;;
37657;SDS011;23500;53.268;8.308;2022-07-09T11:43:50;1.60;;;1.50;;
37657;SDS011;23500;53.268;8.308;2022-07-09T11:46:19;1.48;;;1.38;;
37657;SDS011;23500;53.268;8.308;2022-07-09T11:48:49;1.55;;;1.42;;
37657;SDS011;23500;53.268;8.308;2022-07-09T11:51:25;2.20;;;1.73;;
37657;SDS011;23500;53.268;8.308;2022-07-09T11:53:58;1.60;;;1.50;;
37657;SDS011;23500;53.268;8.308;2022-07-09T11:56:38;1.52;;;1.42;;
37657;SDS011;23500;53.268;8.308;2022-07-09T11:59:05;1.45;;;1.35;;
37657;SDS011;23500;53.268;8.308;2022-07-09T12:01:30;2.30;;;1.65;;
37657;SDS011;23500;53.268;8.308;2022-07-09T12:03:56;1.55;;;1.45;;
37657;SDS011;23500;53.268;8.308;2022-07-09T12:06:22;1.60;;;1.40;;
37657;SDS011;23500;53.268;8.308;2022-07-09T12:08:57;1.95;;;1.55;;
37657;SDS011;23500;53.268;8.308;2022-07-09T12:11:27;1.50;;;1.40;;
37657;SDS011;23500;53.268;8.308;2022-07-09T12:13:54;2.25;;;1.70;;
37657;SDS011;23500;53.268;8.308;2022-07-09T12:16:20;1.48;;;1.38;;
37657;SDS011;23500;53.268;8.308;2022-07-09T12:18:46;1.85;;;1.67;;
37657;SDS011;23500;53.268;8.308;2022-07-09T12:21:12;1.67;;;1.58;;
37657;SDS011;23500;53.268;8.308;2022-07-09T12:23:37;1.52;;;1.38;;
37657;SDS011;23500;53.268;8.308;2022-07-09T12:26:03;1.20;;;1.10;;
37657;SDS011;23500;53.268;8.308;2022-07-09T12:28:29;1.60;;;1.50;;
37657;SDS011;23500;53.268;8.308;2022-07-09T12:30:55;1.70;;;1.60;;
37657;SDS011;23500;53.268;8.308;2022-07-09T12:33:20;1.65;;;1.50;;
37657;SDS011;23500;53.268;8.308;2022-07-09T12:35:46;1.60;;;1.50;;
37657;SDS011;23500;53.268;8.308;2022-07-09T12:38:12;1.58;;;1.48;;
37657;SDS011;23500;53.268;8.308;2022-07-09T12:40:37;2.22;;;1.42;;
37657;SDS011;23500;53.268;8.308;2022-07-09T12:43:03;1.70;;;1.45;;
37657;SDS011;23500;53.268;8.308;2022-07-09T12:45:29;1.52;;;1.35;;
37657;SDS011;23500;53.268;8.308;2022-07-09T12:47:54;1.50;;;1.40;;
37657;SDS011;23500;53.268;8.308;2022-07-09T12:50:20;1.70;;;1.60;;
37657;SDS011;23500;53.268;8.308;2022-07-09T12:52:46;1.80;;;1.58;;
37657;SDS011;23500;53.268;8.308;2022-07-09T12:55:11;1.45;;;1.35;;
37657;SDS011;23500;53.268;8.308;2022-07-09T12:57:37;1.42;;;1.33;;
37657;SDS011;23500;53.268;8.308;2022-07-09T13:00:04;1.67;;;1.52;;
37657;SDS011;23500;53.268;8.308;2022-07-09T13:02:31;1.85;;;1.63;;
37657;SDS011;23500;53.268;8.308;2022-07-09T13:04:56;1.60;;;1.50;;
37657;SDS011;23500;53.268;8.308;2022-07-09T13:07:22;2.25;;;1.73;;
37657;SDS011;23500;53.268;8.308;2022-07-09T13:09:48;1.67;;;1.58;;
37657;SDS011;23500;53.268;8.308;2022-07-09T13:12:14;1.77;;;1.40;;
37657;SDS011;23500;53.268;8.308;2022-07-09T13:14:40;1.50;;;1.40;;
37657;SDS011;23500;53.268;8.308;2022-07-09T13:17:06;1.48;;;1.17;;
37657;SDS011;23500;53.268;8.308;2022-07-09T13:19:31;2.15;;;1.40;;
37657;SDS011;23500;53.268;8.308;2022-07-09T13:21:57;1.65;;;1.48;;
37657;SDS011;23500;53.268;8.308;2022-07-09T13:24:23;1.77;;;1.60;;
37657;SDS011;23500;53.268;8.308;2022-07-09T13:26:48;1.67;;;1.48;;
37657;SDS011;23500;53.268;8.308;2022-07-09T13:29:14;2.38;;;1.65;;
37657;SDS011;23500;53.268;8.308;2022-07-09T13:31:40;1.75;;;1.40;;
37657;SDS011;23500;53.268;8.308;2022-07-09T13:34:05;1.65;;;1.55;;
37657;SDS011;23500;53.268;8.308;2022-07-09T13:36:31;2.10;;;1.60;;
37657;SDS011;23500;53.268;8.308;2022-07-09T13:38:57;1.40;;;1.30;;
37657;SDS011;23500;53.268;8.308;2022-07-09T13:41:22;1.60;;;1.50;;
37657;SDS011;23500;53.268;8.308;2022-07-09T13:43:48;1.52;;;1.42;;
37657;SDS011;23500;53.268;8.308;2022-07-09T13:46:13;3.28;;;1.50;;
37657;SDS011;23500;53.268;8.308;2022-07-09T13:48:39;1.73;;;1.38;;
37657;SDS011;23500;53.268;8.308;2022-07-09T13:51:05;2.85;;;1.45;;
37657;SDS011;23500;53.268;8.308;2022-07-09T13:53:31;1.85;;;1.30;;
37657;SDS011;23500;53.268;8.308;2022-07-09T13:55:57;2.22;;;1.50;;
37657;SDS011;23500;53.268;8.308;2022-07-09T13:58:23;1.48;;;1.33;;
37657;SDS011;23500;53.268;8.308;2022-07-09T14:00:49;1.85;;;1.50;;
37657;SDS011;23500;53.268;8.308;2022-07-09T14:03:15;1.55;;;1.40;;
37657;SDS011;23500;53.268;8.308;2022-07-09T14:05:41;1.60;;;1.50;;
37657;SDS011;23500;53.268;8.308;2022-07-09T14:08:07;1.90;;;1.63;;
37657;SDS011;23500;53.268;8.308;2022-07-09T14:10:33;1.80;;;1.60;;
37657;SDS011;23500;53.268;8.308;2022-07-09T14:12:59;1.55;;;1.45;;
37657;SDS011;23500;53.268;8.308;2022-07-09T14:15:26;2.58;;;1.70;;
37657;SDS011;23500;53.268;8.308;2022-07-09T14:17:52;1.50;;;1.40;;
37657;SDS011;23500;53.268;8.308;2022-07-09T14:20:17;1.83;;;1.30;;
37657;SDS011;23500;53.268;8.308;2022-07-09T14:22:44;3.35;;;1.60;;
37657;SDS011;23500;53.268;8.308;2022-07-09T14:25:10;2.92;;;1.40;;
37657;SDS011;23500;53.268;8.308;2022-07-09T14:27:36;3.35;;;1.42;;
37657;SDS011;23500;53.268;8.308;2022-07-09T14:30:02;3.65;;;1.50;;
37657;SDS011;23500;53.268;8.308;2022-07-09T14:32:28;2.55;;;1.38;;
37657;SDS011;23500;53.268;8.308;2022-07-09T14:34:53;1.52;;;1.38;;
37657;SDS011;23500;53.268;8.308;2022-07-09T14:37:19;1.70;;;1.60;;
37657;SDS011;23500;53.268;8.308;2022-07-09T14:39:45;1.30;;;1.20;;
37657;SDS011;23500;53.268;8.308;2022-07-09T14:42:11;2.70;;;1.50;;
37657;SDS011;23500;53.268;8.308;2022-07-09T14:44:36;1.77;;;1.50;;
37657;SDS011;23500;53.268;8.308;2022-07-09T14:47:02;3.10;;;1.70;;